sensor_id;sensor_type;location;lat;lon;timestamp;pressure;altitude;pressure_sealevel;temperature;humidity
77469;BME280;68840;50.272;12.818;2023-08-12T00:00:09;96542;;;16.6;76.3
77469;BME280;68840;50.272;12.818;2023-08-12T00:02:05;96541;;;16.6;76.0
77469;BME280;68840;50.272;12.818;2023-08-12T00:04:05;96540;;;16.6;72.4
77469;BME280;68840;50.272;12.818;2023-08-12T00:06:05;96539;;;16.6;70.9
77469;BME280;68840;50.272;12.818;2023-08-12T00:08:05;96539;;;16.6;73.3
77469;BME280;68840;50.272;12.818;2023-08-12T00:10:06;96540;;;16.6;74.3
77469;BME280;68840;50.272;12.818;2023-08-12T00:12:05;96541;;;16.6;72.5
77469;BME280;68840;50.272;12.818;2023-08-12T00:14:05;96539;;;16.6;73.1
77469;BME280;68840;50.272;12.818;2023-08-12T00:16:05;96540;;;16.6;73.9
77469;BME280;68840;50.272;12.818;2023-08-12T00:18:06;96539;;;16.5;72.9
77469;BME280;68840;50.272;12.818;2023-08-12T00:20:06;96537;;;16.5;74.3
77469;BME280;68840;50.272;12.818;2023-08-12T00:22:05;96536;;;16.5;76.3
77469;BME280;68840;50.272;12.818;2023-08-12T00:24:06;96533;;;16.5;72.8
77469;BME280;68840;50.272;12.818;2023-08-12T00:26:05;96530;;;16.5;74.4
77469;BME280;68840;50.272;12.818;2023-08-12T00:28:05;96529;;;16.5;75.6
77469;BME280;68840;50.272;12.818;2023-08-12T00:30:06;96527;;;16.5;73.7
77469;BME280;68840;50.272;12.818;2023-08-12T00:32:05;96528;;;16.5;74.2
77469;BME280;68840;50.272;12.818;2023-08-12T00:34:05;96527;;;16.5;75.1
77469;BME280;68840;50.272;12.818;2023-08-12T00:36:05;96527;;;16.5;72.9
77469;BME280;68840;50.272;12.818;2023-08-12T00:38:05;96530;;;16.5;74.0
77469;BME280;68840;50.272;12.818;2023-08-12T00:40:06;96528;;;16.5;73.5
77469;BME280;68840;50.272;12.818;2023-08-12T00:42:05;96527;;;16.5;74.3
77469;BME280;68840;50.272;12.818;2023-08-12T00:44:05;96526;;;16.5;72.5
77469;BME280;68840;50.272;12.818;2023-08-12T00:46:05;96525;;;16.5;72.9
77469;BME280;68840;50.272;12.818;2023-08-12T00:48:08;96527;;;16.4;72.9
77469;BME280;68840;50.272;12.818;2023-08-12T00:50:07;96529;;;16.4;75.0
77469;BME280;68840;50.272;12.818;2023-08-12T00:52:05;96529;;;16.4;75.4
77469;BME280;68840;50.272;12.818;2023-08-12T00:54:06;96527;;;16.4;74.2
77469;BME280;68840;50.272;12.818;2023-08-12T00:56:05;96525;;;16.5;75.2
77469;BME280;68840;50.272;12.818;2023-08-12T00:58:05;96525;;;16.5;73.8
77469;BME280;68840;50.272;12.818;2023-08-12T01:00:06;96528;;;16.5;76.8
77469;BME280;68840;50.272;12.818;2023-08-12T01:02:05;96531;;;16.5;76.6
77469;BME280;68840;50.272;12.818;2023-08-12T01:04:05;96530;;;16.5;76.5
77469;BME280;68840;50.272;12.818;2023-08-12T01:06:06;96528;;;16.5;77.5
77469;BME280;68840;50.272;12.818;2023-08-12T01:08:05;96525;;;16.5;75.5
77469;BME280;68840;50.272;12.818;2023-08-12T01:10:06;96523;;;16.5;73.6
77469;BME280;68840;50.272;12.818;2023-08-12T01:12:11;96524;;;16.5;74.8
77469;BME280;68840;50.272;12.818;2023-08-12T01:14:10;96522;;;16.4;77.4
77469;BME280;68840;50.272;12.818;2023-08-12T01:16:08;96520;;;16.4;76.1
77469;BME280;68840;50.272;12.818;2023-08-12T01:18:07;96518;;;16.4;74.1
77469;BME280;68840;50.272;12.818;2023-08-12T01:20:08;96513;;;16.4;74.5
77469;BME280;68840;50.272;12.818;2023-08-12T01:22:08;96512;;;16.4;76.3
77469;BME280;68840;50.272;12.818;2023-08-12T01:24:06;96510;;;16.3;75.3
77469;BME280;68840;50.272;12.818;2023-08-12T01:26:05;96509;;;16.3;74.5
77469;BME280;68840;50.272;12.818;2023-08-12T01:28:06;96509;;;16.3;76.1
77469;BME280;68840;50.272;12.818;2023-08-12T01:30:07;96508;;;16.3;79.1
77469;BME280;68840;50.272;12.818;2023-08-12T01:32:11;96507;;;16.3;78.8
77469;BME280;68840;50.272;12.818;2023-08-12T01:34:10;96503;;;16.3;76.4
77469;BME280;68840;50.272;12.818;2023-08-12T01:36:09;96500;;;16.3;73.9
77469;BME280;68840;50.272;12.818;2023-08-12T01:38:07;96499;;;16.2;73.4
77469;BME280;68840;50.272;12.818;2023-08-12T01:40:06;96501;;;16.2;75.4
77469;BME280;68840;50.272;12.818;2023-08-12T01:42:06;96498;;;16.2;74.0
77469;BME280;68840;50.272;12.818;2023-08-12T01:44:05;96499;;;16.2;74.0
77469;BME280;68840;50.272;12.818;2023-08-12T01:46:05;96497;;;16.2;75.1
77469;BME280;68840;50.272;12.818;2023-08-12T01:48:06;96497;;;16.2;75.2
77469;BME280;68840;50.272;12.818;2023-08-12T01:50:06;96494;;;16.2;72.8
77469;BME280;68840;50.272;12.818;2023-08-12T01:52:05;96494;;;16.2;71.0
77469;BME280;68840;50.272;12.818;2023-08-12T01:54:05;96495;;;16.1;72.1
77469;BME280;68840;50.272;12.818;2023-08-12T01:56:05;96494;;;16.1;70.5
77469;BME280;68840;50.272;12.818;2023-08-12T01:58:05;96494;;;16.1;72.5
77469;BME280;68840;50.272;12.818;2023-08-12T02:00:06;96491;;;16.0;72.7
77469;BME280;68840;50.272;12.818;2023-08-12T02:02:05;96489;;;16.0;71.5
77469;BME280;68840;50.272;12.818;2023-08-12T02:04:05;96485;;;15.9;74.7
77469;BME280;68840;50.272;12.818;2023-08-12T02:06:05;96482;;;15.9;72.1
77469;BME280;68840;50.272;12.818;2023-08-12T02:08:05;96481;;;15.9;71.9
77469;BME280;68840;50.272;12.818;2023-08-12T02:10:06;96482;;;15.8;70.8
77469;BME280;68840;50.272;12.818;2023-08-12T02:12:06;96483;;;15.8;76.2
77469;BME280;68840;50.272;12.818;2023-08-12T02:14:05;96482;;;15.7;74.0
77469;BME280;68840;50.272;12.818;2023-08-12T02:16:05;96478;;;15.7;76.7
77469;BME280;68840;50.272;12.818;2023-08-12T02:18:05;96477;;;15.7;78.8
77469;BME280;68840;50.272;12.818;2023-08-12T02:20:06;96475;;;15.6;74.8
77469;BME280;68840;50.272;12.818;2023-08-12T02:22:05;96471;;;15.6;73.3
77469;BME280;68840;50.272;12.818;2023-08-12T02:24:06;96469;;;15.5;73.9
77469;BME280;68840;50.272;12.818;2023-08-12T02:26:05;96468;;;15.5;74.5
77469;BME280;68840;50.272;12.818;2023-08-12T02:28:05;96469;;;15.5;74.0
77469;BME280;68840;50.272;12.818;2023-08-12T02:30:06;96468;;;15.5;75.3
77469;BME280;68840;50.272;12.818;2023-08-12T02:32:05;96464;;;15.5;75.0
77469;BME280;68840;50.272;12.818;2023-08-12T02:34:05;96461;;;15.5;74.1
77469;BME280;68840;50.272;12.818;2023-08-12T02:36:05;96458;;;15.5;73.6
77469;BME280;68840;50.272;12.818;2023-08-12T02:38:05;96455;;;15.5;71.4
77469;BME280;68840;50.272;12.818;2023-08-12T02:40:06;96452;;;15.4;72.3
77469;BME280;68840;50.272;12.818;2023-08-12T02:42:05;96448;;;15.4;72.7
77469;BME280;68840;50.272;12.818;2023-08-12T02:44:05;96449;;;15.4;73.9
77469;BME280;68840;50.272;12.818;2023-08-12T02:46:05;96449;;;15.5;73.0
77469;BME280;68840;50.272;12.818;2023-08-12T02:48:05;96447;;;15.5;72.8
77469;BME280;68840;50.272;12.818;2023-08-12T02:50:06;96444;;;15.5;72.5
77469;BME280;68840;50.272;12.818;2023-08-12T02:52:05;96443;;;15.5;70.3
77469;BME280;68840;50.272;12.818;2023-08-12T02:54:05;96441;;;15.4;70.1
77469;BME280;68840;50.272;12.818;2023-08-12T02:56:05;96440;;;15.4;71.6
77469;BME280;68840;50.272;12.818;2023-08-12T02:58:05;96440;;;15.4;73.7
77469;BME280;68840;50.272;12.818;2023-08-12T03:00:08;96441;;;15.3;76.9
77469;BME280;68840;50.272;12.818;2023-08-12T03:02:05;96441;;;15.3;72.9
77469;BME280;68840;50.272;12.818;2023-08-12T03:04:05;96440;;;15.3;73.5
77469;BME280;68840;50.272;12.818;2023-08-12T03:06:05;96439;;;15.3;75.6
77469;BME280;68840;50.272;12.818;2023-08-12T03:08:05;96437;;;15.2;74.2
77469;BME280;68840;50.272;12.818;2023-08-12T03:10:06;96435;;;15.2;76.0
77469;BME280;68840;50.272;12.818;2023-08-12T03:12:06;96435;;;15.2;77.5
77469;BME280;68840;50.272;12.818;2023-08-12T03:14:05;96437;;;15.2;74.0
77469;BME280;68840;50.272;12.818;2023-08-12T03:16:10;96438;;;15.2;79.0
77469;BME280;68840;50.272;12.818;2023-08-12T03:18:05;96437;;;15.1;78.9
77469;BME280;68840;50.272;12.818;2023-08-12T03:20:08;96436;;;15.1;80.4
77469;BME280;68840;50.272;12.818;2023-08-12T03:22:05;96438;;;15.1;77.3
77469;BME280;68840;50.272;12.818;2023-08-12T03:24:05;96438;;;15.2;75.0
77469;BME280;68840;50.272;12.818;2023-08-12T03:26:05;96439;;;15.2;72.4
77469;BME280;68840;50.272;12.818;2023-08-12T03:28:05;96437;;;15.1;73.0
77469;BME280;68840;50.272;12.818;2023-08-12T03:30:06;96435;;;15.1;72.2
77469;BME280;68840;50.272;12.818;2023-08-12T03:32:05;96435;;;15.0;74.1
77469;BME280;68840;50.272;12.818;2023-08-12T03:34:05;96434;;;15.0;74.4
77469;BME280;68840;50.272;12.818;2023-08-12T03:36:06;96434;;;14.9;70.6
77469;BME280;68840;50.272;12.818;2023-08-12T03:38:06;96435;;;14.9;70.8
77469;BME280;68840;50.272;12.818;2023-08-12T03:40:06;96436;;;14.9;69.7
77469;BME280;68840;50.272;12.818;2023-08-12T03:42:05;96437;;;14.8;72.0
77469;BME280;68840;50.272;12.818;2023-08-12T03:44:05;96433;;;14.8;70.6
77469;BME280;68840;50.272;12.818;2023-08-12T03:46:05;96431;;;14.7;70.3
77469;BME280;68840;50.272;12.818;2023-08-12T03:48:06;96429;;;14.7;72.0
77469;BME280;68840;50.272;12.818;2023-08-12T03:50:06;96426;;;14.6;70.2
77469;BME280;68840;50.272;12.818;2023-08-12T03:52:07;96426;;;14.6;74.5
77469;BME280;68840;50.272;12.818;2023-08-12T03:54:05;96425;;;14.6;75.1
77469;BME280;68840;50.272;12.818;2023-08-12T03:56:05;96425;;;14.6;74.0
77469;BME280;68840;50.272;12.818;2023-08-12T03:58:05;96427;;;14.6;74.5
77469;BME280;68840;50.272;12.818;2023-08-12T04:00:07;96430;;;14.6;78.7
77469;BME280;68840;50.272;12.818;2023-08-12T04:02:06;96431;;;14.6;79.8
77469;BME280;68840;50.272;12.818;2023-08-12T04:04:06;96432;;;14.6;82.3
77469;BME280;68840;50.272;12.818;2023-08-12T04:06:05;96432;;;14.7;80.6
77469;BME280;68840;50.272;12.818;2023-08-12T04:08:05;96432;;;14.7;79.0
77469;BME280;68840;50.272;12.818;2023-08-12T04:10:06;96432;;;14.7;77.8
77469;BME280;68840;50.272;12.818;2023-08-12T04:12:06;96431;;;14.7;77.2
77469;BME280;68840;50.272;12.818;2023-08-12T04:14:05;96428;;;14.7;75.1
77469;BME280;68840;50.272;12.818;2023-08-12T04:16:05;96426;;;14.7;76.4
77469;BME280;68840;50.272;12.818;2023-08-12T04:18:05;96423;;;14.7;75.9
77469;BME280;68840;50.272;12.818;2023-08-12T04:20:06;96423;;;14.6;76.1
77469;BME280;68840;50.272;12.818;2023-08-12T04:22:05;96424;;;14.6;78.6
77469;BME280;68840;50.272;12.818;2023-08-12T04:24:06;96426;;;14.7;80.0
77469;BME280;68840;50.272;12.818;2023-08-12T04:26:05;96426;;;14.7;80.4
77469;BME280;68840;50.272;12.818;2023-08-12T04:28:05;96427;;;14.8;81.4
77469;BME280;68840;50.272;12.818;2023-08-12T04:30:06;96426;;;15.0;81.9
77469;BME280;68840;50.272;12.818;2023-08-12T04:32:05;96428;;;15.2;80.1
77469;BME280;68840;50.272;12.818;2023-08-12T04:34:05;96427;;;15.3;79.0
77469;BME280;68840;50.272;12.818;2023-08-12T04:36:06;96426;;;15.5;80.1
77469;BME280;68840;50.272;12.818;2023-08-12T04:38:05;96425;;;15.6;79.1
77469;BME280;68840;50.272;12.818;2023-08-12T04:40:07;96423;;;15.8;79.1
77469;BME280;68840;50.272;12.818;2023-08-12T04:42:05;96422;;;15.9;78.7
77469;BME280;68840;50.272;12.818;2023-08-12T04:44:05;96421;;;16.0;79.5
77469;BME280;68840;50.272;12.818;2023-08-12T04:46:05;96423;;;16.2;80.5
77469;BME280;68840;50.272;12.818;2023-08-12T04:48:08;96426;;;16.3;80.2
77469;BME280;68840;50.272;12.818;2023-08-12T04:50:06;96429;;;16.5;79.6
77469;BME280;68840;50.272;12.818;2023-08-12T04:52:06;96431;;;16.6;79.4
77469;BME280;68840;50.272;12.818;2023-08-12T04:54:05;96433;;;16.8;79.3
77469;BME280;68840;50.272;12.818;2023-08-12T04:56:05;96431;;;17.0;79.0
77469;BME280;68840;50.272;12.818;2023-08-12T04:58:05;96429;;;17.1;78.7
77469;BME280;68840;50.272;12.818;2023-08-12T05:00:08;96431;;;17.3;77.2
77469;BME280;68840;50.272;12.818;2023-08-12T05:02:05;96431;;;17.4;76.0
77469;BME280;68840;50.272;12.818;2023-08-12T05:04:05;96431;;;17.5;75.7
77469;BME280;68840;50.272;12.818;2023-08-12T05:06:05;96432;;;17.6;75.9
77469;BME280;68840;50.272;12.818;2023-08-12T05:08:05;96435;;;17.7;75.2
77469;BME280;68840;50.272;12.818;2023-08-12T05:10:06;96435;;;17.9;74.9
77469;BME280;68840;50.272;12.818;2023-08-12T05:12:06;96436;;;18.0;73.7
77469;BME280;68840;50.272;12.818;2023-08-12T05:14:05;96437;;;18.2;73.1
77469;BME280;68840;50.272;12.818;2023-08-12T05:16:05;96437;;;18.4;72.8
77469;BME280;68840;50.272;12.818;2023-08-12T05:18:05;96437;;;18.6;72.1
77469;BME280;68840;50.272;12.818;2023-08-12T05:20:07;96438;;;18.9;73.1
77469;BME280;68840;50.272;12.818;2023-08-12T05:22:05;96437;;;19.1;71.7
77469;BME280;68840;50.272;12.818;2023-08-12T05:24:06;96434;;;19.4;70.2
77469;BME280;68840;50.272;12.818;2023-08-12T05:26:05;96433;;;19.5;69.6
77469;BME280;68840;50.272;12.818;2023-08-12T05:28:05;96435;;;19.7;69.7
77469;BME280;68840;50.272;12.818;2023-08-12T05:30:06;96441;;;19.9;68.1
77469;BME280;68840;50.272;12.818;2023-08-12T05:32:05;96445;;;20.1;68.9
77469;BME280;68840;50.272;12.818;2023-08-12T05:34:06;96447;;;20.4;66.4
77469;BME280;68840;50.272;12.818;2023-08-12T05:36:05;96447;;;20.6;65.5
77469;BME280;68840;50.272;12.818;2023-08-12T05:38:05;96446;;;20.8;65.4
77469;BME280;68840;50.272;12.818;2023-08-12T05:40:08;96444;;;20.9;64.2
77469;BME280;68840;50.272;12.818;2023-08-12T05:42:05;96444;;;21.0;63.8
77469;BME280;68840;50.272;12.818;2023-08-12T05:44:06;96444;;;21.2;64.7
77469;BME280;68840;50.272;12.818;2023-08-12T05:46:05;96442;;;21.2;64.8
77469;BME280;68840;50.272;12.818;2023-08-12T05:48:05;96439;;;21.3;64.3
77469;BME280;68840;50.272;12.818;2023-08-12T05:50:06;96435;;;21.4;65.5
77469;BME280;68840;50.272;12.818;2023-08-12T05:52:05;96429;;;21.5;64.5
77469;BME280;68840;50.272;12.818;2023-08-12T05:54:05;96426;;;21.6;65.0
77469;BME280;68840;50.272;12.818;2023-08-12T05:56:05;96423;;;21.7;65.3
77469;BME280;68840;50.272;12.818;2023-08-12T05:58:05;96425;;;21.8;64.5
77469;BME280;68840;50.272;12.818;2023-08-12T06:00:06;96424;;;22.0;65.2
77469;BME280;68840;50.272;12.818;2023-08-12T06:02:06;96423;;;22.1;63.6
77469;BME280;68840;50.272;12.818;2023-08-12T06:04:05;96420;;;22.2;65.1
77469;BME280;68840;50.272;12.818;2023-08-12T06:06:05;96415;;;22.3;62.7
77469;BME280;68840;50.272;12.818;2023-08-12T06:08:05;96413;;;22.4;63.1
77469;BME280;68840;50.272;12.818;2023-08-12T06:10:06;96410;;;22.4;64.9
77469;BME280;68840;50.272;12.818;2023-08-12T06:12:06;96410;;;22.4;64.2
77469;BME280;68840;50.272;12.818;2023-08-12T06:14:06;96411;;;22.3;62.6
77469;BME280;68840;50.272;12.818;2023-08-12T06:16:05;96413;;;22.2;63.0
77469;BME280;68840;50.272;12.818;2023-08-12T06:18:05;96413;;;22.1;63.1
77469;BME280;68840;50.272;12.818;2023-08-12T06:20:06;96413;;;22.0;62.7
77469;BME280;68840;50.272;12.818;2023-08-12T06:22:05;96411;;;21.9;65.8
77469;BME280;68840;50.272;12.818;2023-08-12T06:24:05;96409;;;21.8;64.1
77469;BME280;68840;50.272;12.818;2023-08-12T06:26:05;96409;;;21.7;64.9
77469;BME280;68840;50.272;12.818;2023-08-12T06:28:07;96409;;;21.6;65.1
77469;BME280;68840;50.272;12.818;2023-08-12T06:30:06;96409;;;21.6;66.4
77469;BME280;68840;50.272;12.818;2023-08-12T06:32:06;96407;;;21.5;65.9
77469;BME280;68840;50.272;12.818;2023-08-12T06:34:05;96406;;;21.5;65.7
77469;BME280;68840;50.272;12.818;2023-08-12T06:36:06;96406;;;21.5;69.3
77469;BME280;68840;50.272;12.818;2023-08-12T06:38:06;96407;;;21.5;68.4
77469;BME280;68840;50.272;12.818;2023-08-12T06:40:06;96406;;;21.5;68.3
77469;BME280;68840;50.272;12.818;2023-08-12T06:42:05;96404;;;21.5;70.4
77469;BME280;68840;50.272;12.818;2023-08-12T06:44:06;96402;;;21.5;69.7
77469;BME280;68840;50.272;12.818;2023-08-12T06:46:05;96398;;;21.6;68.6
77469;BME280;68840;50.272;12.818;2023-08-12T06:48:05;96397;;;21.6;68.0
77469;BME280;68840;50.272;12.818;2023-08-12T06:50:06;96395;;;21.6;70.3
77469;BME280;68840;50.272;12.818;2023-08-12T06:52:05;96391;;;21.6;73.8
77469;BME280;68840;50.272;12.818;2023-08-12T06:54:05;96386;;;21.6;72.4
77469;BME280;68840;50.272;12.818;2023-08-12T06:56:05;96382;;;21.6;71.2
77469;BME280;68840;50.272;12.818;2023-08-12T06:58:05;96380;;;21.7;73.1
77469;BME280;68840;50.272;12.818;2023-08-12T07:00:06;96377;;;21.8;69.3
77469;BME280;68840;50.272;12.818;2023-08-12T07:02:06;96377;;;21.8;69.9
77469;BME280;68840;50.272;12.818;2023-08-12T07:04:05;96376;;;21.9;67.9
77469;BME280;68840;50.272;12.818;2023-08-12T07:06:05;96375;;;22.0;70.8
77469;BME280;68840;50.272;12.818;2023-08-12T07:08:05;96372;;;22.0;72.0
77469;BME280;68840;50.272;12.818;2023-08-12T07:10:06;96373;;;22.1;71.5
77469;BME280;68840;50.272;12.818;2023-08-12T07:12:06;96374;;;22.2;66.1
77469;BME280;68840;50.272;12.818;2023-08-12T07:14:05;96376;;;22.3;68.6
77469;BME280;68840;50.272;12.818;2023-08-12T07:16:05;96379;;;22.4;68.8
77469;BME280;68840;50.272;12.818;2023-08-12T07:18:05;96380;;;22.5;72.8
77469;BME280;68840;50.272;12.818;2023-08-12T07:20:06;96379;;;22.6;65.4
77469;BME280;68840;50.272;12.818;2023-08-12T07:22:05;96380;;;22.7;67.6
77469;BME280;68840;50.272;12.818;2023-08-12T07:24:06;96382;;;22.8;65.0
77469;BME280;68840;50.272;12.818;2023-08-12T07:26:05;96380;;;22.9;62.1
77469;BME280;68840;50.272;12.818;2023-08-12T07:28:07;96378;;;23.0;64.1
77469;BME280;68840;50.272;12.818;2023-08-12T07:30:07;96375;;;23.1;63.8
77469;BME280;68840;50.272;12.818;2023-08-12T07:32:05;96375;;;23.1;64.3
77469;BME280;68840;50.272;12.818;2023-08-12T07:34:05;96375;;;23.2;63.7
77469;BME280;68840;50.272;12.818;2023-08-12T07:36:05;96375;;;23.3;60.1
77469;BME280;68840;50.272;12.818;2023-08-12T07:38:06;96378;;;23.4;60.3
77469;BME280;68840;50.272;12.818;2023-08-12T07:40:06;96379;;;23.5;63.2
77469;BME280;68840;50.272;12.818;2023-08-12T07:42:05;96376;;;23.7;66.0
77469;BME280;68840;50.272;12.818;2023-08-12T07:44:05;96375;;;23.8;61.9
77469;BME280;68840;50.272;12.818;2023-08-12T07:46:05;96374;;;23.9;61.7
77469;BME280;68840;50.272;12.818;2023-08-12T07:50:06;96373;;;24.2;57.4
77469;BME280;68840;50.272;12.818;2023-08-12T07:52:05;96370;;;24.3;57.6
77469;BME280;68840;50.272;12.818;2023-08-12T07:54:06;96370;;;24.4;56.3
77469;BME280;68840;50.272;12.818;2023-08-12T07:56:05;96370;;;24.5;56.1
77469;BME280;68840;50.272;12.818;2023-08-12T07:58:05;96368;;;24.6;58.4
77469;BME280;68840;50.272;12.818;2023-08-12T08:00:08;96364;;;24.7;58.9
77469;BME280;68840;50.272;12.818;2023-08-12T08:02:06;96361;;;24.8;57.8
77469;BME280;68840;50.272;12.818;2023-08-12T08:04:06;96361;;;24.9;59.4
77469;BME280;68840;50.272;12.818;2023-08-12T08:06:05;96360;;;25.0;58.5
77469;BME280;68840;50.272;12.818;2023-08-12T08:08:05;96360;;;25.2;55.5
77469;BME280;68840;50.272;12.818;2023-08-12T08:10:06;96358;;;25.3;59.3
77469;BME280;68840;50.272;12.818;2023-08-12T08:12:06;96360;;;25.4;58.5
77469;BME280;68840;50.272;12.818;2023-08-12T08:14:05;96363;;;25.5;54.4
77469;BME280;68840;50.272;12.818;2023-08-12T08:16:05;96366;;;25.6;57.1
77469;BME280;68840;50.272;12.818;2023-08-12T08:18:05;96363;;;25.7;53.7
77469;BME280;68840;50.272;12.818;2023-08-12T08:20:07;96361;;;25.8;55.6
77469;BME280;68840;50.272;12.818;2023-08-12T08:22:05;96358;;;25.9;57.0
77469;BME280;68840;50.272;12.818;2023-08-12T08:24:06;96360;;;26.1;53.8
77469;BME280;68840;50.272;12.818;2023-08-12T08:26:06;96361;;;26.2;55.6
77469;BME280;68840;50.272;12.818;2023-08-12T08:28:05;96362;;;26.4;54.6
77469;BME280;68840;50.272;12.818;2023-08-12T08:30:07;96358;;;26.4;53.4
77469;BME280;68840;50.272;12.818;2023-08-12T08:32:06;96357;;;26.5;56.1
77469;BME280;68840;50.272;12.818;2023-08-12T08:34:06;96356;;;26.6;53.9
77469;BME280;68840;50.272;12.818;2023-08-12T08:36:05;96357;;;26.6;53.2
77469;BME280;68840;50.272;12.818;2023-08-12T08:38:05;96356;;;26.7;53.7
77469;BME280;68840;50.272;12.818;2023-08-12T08:40:07;96353;;;26.7;55.3
77469;BME280;68840;50.272;12.818;2023-08-12T08:42:06;96351;;;26.7;55.4
77469;BME280;68840;50.272;12.818;2023-08-12T08:44:08;96350;;;26.7;55.4
77469;BME280;68840;50.272;12.818;2023-08-12T08:46:06;96349;;;26.7;54.0
77469;BME280;68840;50.272;12.818;2023-08-12T08:48:07;96350;;;26.8;53.2
77469;BME280;68840;50.272;12.818;2023-08-12T08:50:06;96352;;;26.9;52.8
77469;BME280;68840;50.272;12.818;2023-08-12T08:52:05;96352;;;27.0;51.8
77469;BME280;68840;50.272;12.818;2023-08-12T08:54:05;96353;;;27.1;50.6
77469;BME280;68840;50.272;12.818;2023-08-12T08:56:06;96352;;;27.2;52.3
77469;BME280;68840;50.272;12.818;2023-08-12T08:58:05;96352;;;27.2;50.3
77469;BME280;68840;50.272;12.818;2023-08-12T09:00:08;96351;;;27.2;52.0
77469;BME280;68840;50.272;12.818;2023-08-12T09:02:13;96354;;;27.3;53.7
77469;BME280;68840;50.272;12.818;2023-08-12T09:04:06;96355;;;27.3;53.0
77469;BME280;68840;50.272;12.818;2023-08-12T09:06:06;96356;;;27.3;52.7
77469;BME280;68840;50.272;12.818;2023-08-12T09:08:10;96356;;;27.4;53.4
77469;BME280;68840;50.272;12.818;2023-08-12T09:10:08;96353;;;27.4;54.0
77469;BME280;68840;50.272;12.818;2023-08-12T09:12:07;96350;;;27.5;52.8
77469;BME280;68840;50.272;12.818;2023-08-12T09:14:06;96348;;;27.5;52.2
77469;BME280;68840;50.272;12.818;2023-08-12T09:16:05;96347;;;27.6;53.5
77469;BME280;68840;50.272;12.818;2023-08-12T09:18:06;96346;;;27.6;51.5
77469;BME280;68840;50.272;12.818;2023-08-12T09:20:11;96344;;;27.7;50.2
77469;BME280;68840;50.272;12.818;2023-08-12T09:22:07;96344;;;27.7;49.3
77469;BME280;68840;50.272;12.818;2023-08-12T09:24:08;96345;;;27.7;51.2
77469;BME280;68840;50.272;12.818;2023-08-12T09:26:12;96343;;;27.7;49.4
77469;BME280;68840;50.272;12.818;2023-08-12T09:28:05;96341;;;27.7;48.2
77469;BME280;68840;50.272;12.818;2023-08-12T09:30:06;96339;;;27.7;48.4
77469;BME280;68840;50.272;12.818;2023-08-12T09:32:09;96335;;;27.6;48.6
77469;BME280;68840;50.272;12.818;2023-08-12T09:34:06;96333;;;27.6;47.2
77469;BME280;68840;50.272;12.818;2023-08-12T09:36:05;96332;;;27.6;48.0
77469;BME280;68840;50.272;12.818;2023-08-12T09:38:06;96332;;;27.6;49.9
77469;BME280;68840;50.272;12.818;2023-08-12T09:40:06;96332;;;27.6;50.1
77469;BME280;68840;50.272;12.818;2023-08-12T09:42:05;96330;;;27.6;48.9
77469;BME280;68840;50.272;12.818;2023-08-12T09:44:05;96329;;;27.6;50.7
77469;BME280;68840;50.272;12.818;2023-08-12T09:46:06;96329;;;27.7;49.5
77469;BME280;68840;50.272;12.818;2023-08-12T09:48:08;96324;;;27.7;47.9
77469;BME280;68840;50.272;12.818;2023-08-12T09:50:05;96322;;;27.7;47.3
77469;BME280;68840;50.272;12.818;2023-08-12T09:52:07;96319;;;27.8;49.4
77469;BME280;68840;50.272;12.818;2023-08-12T09:54:05;96319;;;27.8;47.2
77469;BME280;68840;50.272;12.818;2023-08-12T09:56:07;96318;;;27.8;48.3
77469;BME280;68840;50.272;12.818;2023-08-12T09:58:07;96317;;;27.8;47.8
77469;BME280;68840;50.272;12.818;2023-08-12T10:00:12;96315;;;27.7;49.3
77469;BME280;68840;50.272;12.818;2023-08-12T10:02:07;96315;;;27.7;49.4
77469;BME280;68840;50.272;12.818;2023-08-12T10:04:12;96316;;;27.6;51.2
77469;BME280;68840;50.272;12.818;2023-08-12T10:06:05;96315;;;27.6;48.3
77469;BME280;68840;50.272;12.818;2023-08-12T10:08:07;96310;;;27.6;47.3
77469;BME280;68840;50.272;12.818;2023-08-12T10:10:08;96307;;;27.6;50.2
77469;BME280;68840;50.272;12.818;2023-08-12T10:12:06;96305;;;27.5;50.3
77469;BME280;68840;50.272;12.818;2023-08-12T10:14:06;96300;;;27.5;49.7
77469;BME280;68840;50.272;12.818;2023-08-12T10:16:06;96298;;;27.5;48.1
77469;BME280;68840;50.272;12.818;2023-08-12T10:18:06;96296;;;27.5;47.1
77469;BME280;68840;50.272;12.818;2023-08-12T10:20:08;96296;;;27.5;50.6
77469;BME280;68840;50.272;12.818;2023-08-12T10:22:06;96300;;;27.5;49.5
77469;BME280;68840;50.272;12.818;2023-08-12T10:24:06;96303;;;27.4;49.5
77469;BME280;68840;50.272;12.818;2023-08-12T10:26:06;96307;;;27.4;51.1
77469;BME280;68840;50.272;12.818;2023-08-12T10:28:06;96310;;;27.4;51.9
77469;BME280;68840;50.272;12.818;2023-08-12T10:30:07;96308;;;27.4;51.1
77469;BME280;68840;50.272;12.818;2023-08-12T10:32:06;96307;;;27.4;50.9
77469;BME280;68840;50.272;12.818;2023-08-12T10:34:05;96307;;;27.4;51.9
77469;BME280;68840;50.272;12.818;2023-08-12T10:36:06;96304;;;27.3;49.4
77469;BME280;68840;50.272;12.818;2023-08-12T10:38:06;96304;;;27.3;49.3
77469;BME280;68840;50.272;12.818;2023-08-12T10:40:19;96302;;;27.3;52.0
77469;BME280;68840;50.272;12.818;2023-08-12T10:42:06;96298;;;27.3;50.0
77469;BME280;68840;50.272;12.818;2023-08-12T10:44:05;96294;;;27.3;51.0
77469;BME280;68840;50.272;12.818;2023-08-12T10:46:21;96295;;;27.4;47.9
77469;BME280;68840;50.272;12.818;2023-08-12T10:48:15;96299;;;27.4;48.1
77469;BME280;68840;50.272;12.818;2023-08-12T10:50:06;96300;;;27.4;49.9
77469;BME280;68840;50.272;12.818;2023-08-12T10:52:05;96300;;;27.5;47.4
77469;BME280;68840;50.272;12.818;2023-08-12T10:54:21;96296;;;27.6;46.8
77469;BME280;68840;50.272;12.818;2023-08-12T10:56:11;96294;;;27.6;48.0
77469;BME280;68840;50.272;12.818;2023-08-12T10:58:08;96293;;;27.7;46.8
77469;BME280;68840;50.272;12.818;2023-08-12T11:00:11;96291;;;27.7;47.5
77469;BME280;68840;50.272;12.818;2023-08-12T11:02:06;96289;;;27.8;51.3
77469;BME280;68840;50.272;12.818;2023-08-12T11:04:16;96292;;;27.9;47.9
77469;BME280;68840;50.272;12.818;2023-08-12T11:06:05;96291;;;28.0;48.7
77469;BME280;68840;50.272;12.818;2023-08-12T11:08:06;96290;;;28.0;49.3
77469;BME280;68840;50.272;12.818;2023-08-12T11:10:12;96286;;;28.1;45.0
77469;BME280;68840;50.272;12.818;2023-08-12T11:12:05;96283;;;28.1;44.7